sensor_id;sensor_type;location;lat;lon;timestamp;temperature;humidity
27114;DHT22;14648;49.730;8.614;2023-04-15T00:01:26;8.40;46.90
27114;DHT22;14648;49.730;8.614;2023-04-15T00:03:53;8.30;46.90
27114;DHT22;14648;49.730;8.614;2023-04-15T00:06:22;8.30;47.00
27114;DHT22;14648;49.730;8.614;2023-04-15T00:08:48;8.30;47.20
27114;DHT22;14648;49.730;8.614;2023-04-15T00:11:15;8.20;47.10
27114;DHT22;14648;49.730;8.614;2023-04-15T00:13:41;8.20;47.20
27114;DHT22;14648;49.730;8.614;2023-04-15T00:16:07;8.20;47.20
27114;DHT22;14648;49.730;8.614;2023-04-15T00:18:34;8.20;47.30
27114;DHT22;14648;49.730;8.614;2023-04-15T00:21:00;8.20;47.30
27114;DHT22;14648;49.730;8.614;2023-04-15T00:23:26;8.20;47.40
27114;DHT22;14648;49.730;8.614;2023-04-15T00:25:52;8.20;47.50
27114;DHT22;14648;49.730;8.614;2023-04-15T00:28:18;8.20;47.70
27114;DHT22;14648;49.730;8.614;2023-04-15T00:30:44;8.20;47.60
27114;DHT22;14648;49.730;8.614;2023-04-15T00:33:11;8.10;47.70
27114;DHT22;14648;49.730;8.614;2023-04-15T00:35:37;8.10;47.90
27114;DHT22;14648;49.730;8.614;2023-04-15T00:38:05;8.10;47.90
27114;DHT22;14648;49.730;8.614;2023-04-15T00:40:32;8.00;47.90
27114;DHT22;14648;49.730;8.614;2023-04-15T00:42:58;8.00;47.90
27114;DHT22;14648;49.730;8.614;2023-04-15T00:45:25;8.10;48.10
27114;DHT22;14648;49.730;8.614;2023-04-15T00:47:52;8.00;48.10
27114;DHT22;14648;49.730;8.614;2023-04-15T00:50:21;8.00;48.10
27114;DHT22;14648;49.730;8.614;2023-04-15T00:52:47;8.00;48.30
27114;DHT22;14648;49.730;8.614;2023-04-15T00:55:13;8.00;48.30
27114;DHT22;14648;49.730;8.614;2023-04-15T00:57:39;7.90;48.40
27114;DHT22;14648;49.730;8.614;2023-04-15T01:00:07;7.90;48.50
27114;DHT22;14648;49.730;8.614;2023-04-15T01:02:35;7.90;48.60
27114;DHT22;14648;49.730;8.614;2023-04-15T01:05:01;7.90;48.60
27114;DHT22;14648;49.730;8.614;2023-04-15T01:07:29;7.90;48.60
27114;DHT22;14648;49.730;8.614;2023-04-15T01:09:55;7.80;48.70
27114;DHT22;14648;49.730;8.614;2023-04-15T01:12:21;7.80;49.40
27114;DHT22;14648;49.730;8.614;2023-04-15T01:14:49;7.70;48.80
27114;DHT22;14648;49.730;8.614;2023-04-15T01:17:15;7.70;48.80
27114;DHT22;14648;49.730;8.614;2023-04-15T01:19:41;7.70;48.90
27114;DHT22;14648;49.730;8.614;2023-04-15T01:22:06;7.60;48.90
27114;DHT22;14648;49.730;8.614;2023-04-15T01:24:33;7.60;48.90
27114;DHT22;14648;49.730;8.614;2023-04-15T01:26:59;7.60;48.90
27114;DHT22;14648;49.730;8.614;2023-04-15T01:29:25;7.60;48.90
27114;DHT22;14648;49.730;8.614;2023-04-15T01:31:52;7.60;49.00
27114;DHT22;14648;49.730;8.614;2023-04-15T01:34:19;7.50;49.10
27114;DHT22;14648;49.730;8.614;2023-04-15T01:36:46;7.50;49.10
27114;DHT22;14648;49.730;8.614;2023-04-15T01:39:11;7.50;49.10
27114;DHT22;14648;49.730;8.614;2023-04-15T01:41:37;7.50;49.20
27114;DHT22;14648;49.730;8.614;2023-04-15T01:44:04;7.40;49.10
27114;DHT22;14648;49.730;8.614;2023-04-15T01:46:31;7.40;49.20
27114;DHT22;14648;49.730;8.614;2023-04-15T01:48:57;7.30;49.30
27114;DHT22;14648;49.730;8.614;2023-04-15T01:51:22;7.30;49.40
27114;DHT22;14648;49.730;8.614;2023-04-15T01:53:48;7.30;49.40
27114;DHT22;14648;49.730;8.614;2023-04-15T01:56:14;7.20;49.40
27114;DHT22;14648;49.730;8.614;2023-04-15T01:58:40;7.20;49.40
27114;DHT22;14648;49.730;8.614;2023-04-15T02:01:06;7.20;49.40
27114;DHT22;14648;49.730;8.614;2023-04-15T02:03:32;7.20;49.50
27114;DHT22;14648;49.730;8.614;2023-04-15T02:05:58;7.10;49.60
27114;DHT22;14648;49.730;8.614;2023-04-15T02:08:24;7.10;49.60
27114;DHT22;14648;49.730;8.614;2023-04-15T02:10:49;7.10;49.70
27114;DHT22;14648;49.730;8.614;2023-04-15T02:13:16;7.00;49.60
27114;DHT22;14648;49.730;8.614;2023-04-15T02:15:49;7.00;49.70
27114;DHT22;14648;49.730;8.614;2023-04-15T02:18:16;7.00;49.70
27114;DHT22;14648;49.730;8.614;2023-04-15T02:20:42;7.00;49.70
27114;DHT22;14648;49.730;8.614;2023-04-15T02:23:08;7.00;49.70
27114;DHT22;14648;49.730;8.614;2023-04-15T02:25:35;7.00;49.80
27114;DHT22;14648;49.730;8.614;2023-04-15T02:28:01;7.00;49.80
27114;DHT22;14648;49.730;8.614;2023-04-15T02:30:27;6.90;49.90
27114;DHT22;14648;49.730;8.614;2023-04-15T02:32:53;6.90;50.00
27114;DHT22;14648;49.730;8.614;2023-04-15T02:35:18;6.80;50.10
27114;DHT22;14648;49.730;8.614;2023-04-15T02:37:44;6.80;50.30
27114;DHT22;14648;49.730;8.614;2023-04-15T02:40:10;6.80;50.40
27114;DHT22;14648;49.730;8.614;2023-04-15T02:42:41;6.80;50.40
27114;DHT22;14648;49.730;8.614;2023-04-15T02:45:08;6.80;50.50
27114;DHT22;14648;49.730;8.614;2023-04-15T02:47:35;6.80;50.40
27114;DHT22;14648;49.730;8.614;2023-04-15T02:50:04;6.80;50.40
27114;DHT22;14648;49.730;8.614;2023-04-15T02:52:33;6.80;50.50
27114;DHT22;14648;49.730;8.614;2023-04-15T02:54:59;6.80;50.40
27114;DHT22;14648;49.730;8.614;2023-04-15T02:57:28;6.80;50.50
27114;DHT22;14648;49.730;8.614;2023-04-15T02:59:54;6.80;50.50
27114;DHT22;14648;49.730;8.614;2023-04-15T03:02:20;6.80;50.50
27114;DHT22;14648;49.730;8.614;2023-04-15T03:04:46;6.70;50.50
27114;DHT22;14648;49.730;8.614;2023-04-15T03:07:11;6.70;50.60
27114;DHT22;14648;49.730;8.614;2023-04-15T03:09:37;6.70;50.70
27114;DHT22;14648;49.730;8.614;2023-04-15T03:12:06;6.60;50.60
27114;DHT22;14648;49.730;8.614;2023-04-15T03:14:31;6.60;50.60
27114;DHT22;14648;49.730;8.614;2023-04-15T03:16:57;6.60;50.60
27114;DHT22;14648;49.730;8.614;2023-04-15T03:19:24;6.60;50.60
27114;DHT22;14648;49.730;8.614;2023-04-15T03:21:50;6.50;50.70
27114;DHT22;14648;49.730;8.614;2023-04-15T03:24:16;6.50;50.80
27114;DHT22;14648;49.730;8.614;2023-04-15T03:26:42;6.50;50.80
27114;DHT22;14648;49.730;8.614;2023-04-15T03:29:08;6.50;50.80
27114;DHT22;14648;49.730;8.614;2023-04-15T03:31:34;6.50;50.90
27114;DHT22;14648;49.730;8.614;2023-04-15T03:34:00;6.50;50.90
27114;DHT22;14648;49.730;8.614;2023-04-15T03:36:27;6.40;50.90
27114;DHT22;14648;49.730;8.614;2023-04-15T03:38:53;6.40;50.90
27114;DHT22;14648;49.730;8.614;2023-04-15T03:41:20;6.40;50.90
27114;DHT22;14648;49.730;8.614;2023-04-15T03:43:46;6.40;51.00
27114;DHT22;14648;49.730;8.614;2023-04-15T03:46:12;6.30;51.00
27114;DHT22;14648;49.730;8.614;2023-04-15T03:48:38;6.30;51.00
27114;DHT22;14648;49.730;8.614;2023-04-15T03:51:03;6.30;51.00
27114;DHT22;14648;49.730;8.614;2023-04-15T03:53:30;6.30;51.00
27114;DHT22;14648;49.730;8.614;2023-04-15T03:55:55;6.30;51.10
27114;DHT22;14648;49.730;8.614;2023-04-15T03:58:21;6.30;51.10
27114;DHT22;14648;49.730;8.614;2023-04-15T04:00:47;6.20;51.00
27114;DHT22;14648;49.730;8.614;2023-04-15T04:03:13;6.20;51.10
27114;DHT22;14648;49.730;8.614;2023-04-15T04:05:39;6.20;51.10
27114;DHT22;14648;49.730;8.614;2023-04-15T04:08:06;6.20;51.20
27114;DHT22;14648;49.730;8.614;2023-04-15T04:10:31;6.20;51.10
27114;DHT22;14648;49.730;8.614;2023-04-15T04:12:57;6.20;51.20
27114;DHT22;14648;49.730;8.614;2023-04-15T04:15:23;6.20;51.20
27114;DHT22;14648;49.730;8.614;2023-04-15T04:17:48;6.10;51.40
27114;DHT22;14648;49.730;8.614;2023-04-15T04:20:14;6.10;51.30
27114;DHT22;14648;49.730;8.614;2023-04-15T04:22:40;6.10;51.30
27114;DHT22;14648;49.730;8.614;2023-04-15T04:25:09;6.10;51.40
27114;DHT22;14648;49.730;8.614;2023-04-15T04:27:36;6.10;51.40
27114;DHT22;14648;49.730;8.614;2023-04-15T04:30:02;6.10;51.50
27114;DHT22;14648;49.730;8.614;2023-04-15T04:32:28;6.10;51.50
27114;DHT22;14648;49.730;8.614;2023-04-15T04:34:54;6.10;51.60
27114;DHT22;14648;49.730;8.614;2023-04-15T04:37:20;6.10;51.70
27114;DHT22;14648;49.730;8.614;2023-04-15T04:39:45;6.10;51.80
27114;DHT22;14648;49.730;8.614;2023-04-15T04:42:11;6.10;51.80
27114;DHT22;14648;49.730;8.614;2023-04-15T04:44:37;6.10;51.80
27114;DHT22;14648;49.730;8.614;2023-04-15T04:47:03;6.00;51.90
27114;DHT22;14648;49.730;8.614;2023-04-15T04:49:29;6.00;52.00
27114;DHT22;14648;49.730;8.614;2023-04-15T04:51:54;6.00;52.10
27114;DHT22;14648;49.730;8.614;2023-04-15T04:54:20;6.00;52.20
27114;DHT22;14648;49.730;8.614;2023-04-15T04:56:46;6.00;52.30
27114;DHT22;14648;49.730;8.614;2023-04-15T04:59:12;6.00;52.30
27114;DHT22;14648;49.730;8.614;2023-04-15T05:01:38;6.00;52.20
27114;DHT22;14648;49.730;8.614;2023-04-15T05:04:04;6.00;52.20
27114;DHT22;14648;49.730;8.614;2023-04-15T05:06:30;6.00;52.30
27114;DHT22;14648;49.730;8.614;2023-04-15T05:08:57;6.00;52.30
27114;DHT22;14648;49.730;8.614;2023-04-15T05:11:22;6.00;52.40
27114;DHT22;14648;49.730;8.614;2023-04-15T05:13:48;6.00;52.40
27114;DHT22;14648;49.730;8.614;2023-04-15T05:16:14;6.00;52.40
27114;DHT22;14648;49.730;8.614;2023-04-15T05:18:39;6.00;52.40
27114;DHT22;14648;49.730;8.614;2023-04-15T05:21:05;6.00;52.50
27114;DHT22;14648;49.730;8.614;2023-04-15T05:23:31;6.00;52.40
27114;DHT22;14648;49.730;8.614;2023-04-15T05:25:57;6.00;52.40
27114;DHT22;14648;49.730;8.614;2023-04-15T05:28:22;6.00;52.40
27114;DHT22;14648;49.730;8.614;2023-04-15T05:30:48;6.00;52.40
27114;DHT22;14648;49.730;8.614;2023-04-15T05:33:14;6.00;52.50
27114;DHT22;14648;49.730;8.614;2023-04-15T05:35:40;6.00;52.40
27114;DHT22;14648;49.730;8.614;2023-04-15T05:38:05;6.00;52.40
27114;DHT22;14648;49.730;8.614;2023-04-15T05:40:31;5.90;52.60
27114;DHT22;14648;49.730;8.614;2023-04-15T05:42:57;5.90;52.70
27114;DHT22;14648;49.730;8.614;2023-04-15T05:45:23;5.90;52.90
27114;DHT22;14648;49.730;8.614;2023-04-15T05:47:48;5.90;52.80
27114;DHT22;14648;49.730;8.614;2023-04-15T05:50:15;5.90;52.90
27114;DHT22;14648;49.730;8.614;2023-04-15T05:52:41;6.00;52.90
27114;DHT22;14648;49.730;8.614;2023-04-15T05:55:07;6.00;52.80
27114;DHT22;14648;49.730;8.614;2023-04-15T05:57:33;5.90;52.90
27114;DHT22;14648;49.730;8.614;2023-04-15T06:00:00;5.90;53.00
27114;DHT22;14648;49.730;8.614;2023-04-15T06:02:25;6.00;53.10
27114;DHT22;14648;49.730;8.614;2023-04-15T06:04:52;6.00;53.00
27114;DHT22;14648;49.730;8.614;2023-04-15T06:07:18;6.00;53.10
27114;DHT22;14648;49.730;8.614;2023-04-15T06:09:43;6.00;53.10
27114;DHT22;14648;49.730;8.614;2023-04-15T06:12:09;6.10;53.10
27114;DHT22;14648;49.730;8.614;2023-04-15T06:14:37;6.10;53.10
27114;DHT22;14648;49.730;8.614;2023-04-15T06:17:03;6.10;53.20
27114;DHT22;14648;49.730;8.614;2023-04-15T06:19:29;6.10;53.20
27114;DHT22;14648;49.730;8.614;2023-04-15T06:21:55;6.20;53.30
27114;DHT22;14648;49.730;8.614;2023-04-15T06:24:21;6.20;53.30
27114;DHT22;14648;49.730;8.614;2023-04-15T06:26:47;6.30;53.50
27114;DHT22;14648;49.730;8.614;2023-04-15T06:29:12;6.30;53.50
27114;DHT22;14648;49.730;8.614;2023-04-15T06:31:38;6.40;53.50
27114;DHT22;14648;49.730;8.614;2023-04-15T06:34:04;6.40;53.60
27114;DHT22;14648;49.730;8.614;2023-04-15T06:36:30;6.50;53.60
27114;DHT22;14648;49.730;8.614;2023-04-15T06:38:56;6.50;53.60
27114;DHT22;14648;49.730;8.614;2023-04-15T06:41:22;6.50;53.70
27114;DHT22;14648;49.730;8.614;2023-04-15T06:43:48;6.60;53.70
27114;DHT22;14648;49.730;8.614;2023-04-15T06:46:14;6.60;53.80
27114;DHT22;14648;49.730;8.614;2023-04-15T06:48:40;6.60;53.80
27114;DHT22;14648;49.730;8.614;2023-04-15T06:51:05;6.80;54.00
27114;DHT22;14648;49.730;8.614;2023-04-15T06:53:31;6.80;54.00
27114;DHT22;14648;49.730;8.614;2023-04-15T06:55:57;6.90;54.20
27114;DHT22;14648;49.730;8.614;2023-04-15T06:58:23;7.00;54.20
27114;DHT22;14648;49.730;8.614;2023-04-15T07:00:48;7.10;54.40
27114;DHT22;14648;49.730;8.614;2023-04-15T07:03:14;7.20;54.40
27114;DHT22;14648;49.730;8.614;2023-04-15T07:05:40;7.30;54.60
27114;DHT22;14648;49.730;8.614;2023-04-15T07:08:06;7.50;54.70
27114;DHT22;14648;49.730;8.614;2023-04-15T07:10:33;7.70;54.90
27114;DHT22;14648;49.730;8.614;2023-04-15T07:13:02;7.80;54.90
27114;DHT22;14648;49.730;8.614;2023-04-15T07:15:33;8.00;54.90
27114;DHT22;14648;49.730;8.614;2023-04-15T07:17:59;8.10;55.00
27114;DHT22;14648;49.730;8.614;2023-04-15T07:20:24;8.20;55.00
27114;DHT22;14648;49.730;8.614;2023-04-15T07:22:50;8.30;55.00
27114;DHT22;14648;49.730;8.614;2023-04-15T07:25:16;8.40;55.00
27114;DHT22;14648;49.730;8.614;2023-04-15T07:27:42;8.50;55.10
27114;DHT22;14648;49.730;8.614;2023-04-15T07:30:08;8.60;55.10
27114;DHT22;14648;49.730;8.614;2023-04-15T07:32:35;8.60;55.00
27114;DHT22;14648;49.730;8.614;2023-04-15T07:35:01;8.70;55.10
27114;DHT22;14648;49.730;8.614;2023-04-15T07:37:28;8.80;55.10
27114;DHT22;14648;49.730;8.614;2023-04-15T07:39:54;9.00;55.20
27114;DHT22;14648;49.730;8.614;2023-04-15T07:42:20;9.20;55.30
27114;DHT22;14648;49.730;8.614;2023-04-15T07:44:49;9.50;55.40
27114;DHT22;14648;49.730;8.614;2023-04-15T07:47:16;9.90;55.40
27114;DHT22;14648;49.730;8.614;2023-04-15T07:49:42;10.10;55.20
27114;DHT22;14648;49.730;8.614;2023-04-15T07:52:08;10.40;55.10
27114;DHT22;14648;49.730;8.614;2023-04-15T07:54:34;10.70;55.10
27114;DHT22;14648;49.730;8.614;2023-04-15T07:57:00;10.90;55.00
27114;DHT22;14648;49.730;8.614;2023-04-15T07:59:26;11.20;54.70
27114;DHT22;14648;49.730;8.614;2023-04-15T08:01:54;11.50;55.40
27114;DHT22;14648;49.730;8.614;2023-04-15T08:04:20;11.70;54.50
27114;DHT22;14648;49.730;8.614;2023-04-15T08:06:46;12.00;54.20
27114;DHT22;14648;49.730;8.614;2023-04-15T08:09:12;12.30;54.20
27114;DHT22;14648;49.730;8.614;2023-04-15T08:11:38;12.50;54.00
27114;DHT22;14648;49.730;8.614;2023-04-15T08:14:06;12.80;53.80
27114;DHT22;14648;49.730;8.614;2023-04-15T08:16:32;13.00;53.50
27114;DHT22;14648;49.730;8.614;2023-04-15T08:18:58;13.20;53.20
27114;DHT22;14648;49.730;8.614;2023-04-15T08:21:24;13.40;53.10
27114;DHT22;14648;49.730;8.614;2023-04-15T08:23:51;13.40;52.70
27114;DHT22;14648;49.730;8.614;2023-04-15T08:26:18;13.60;52.30
27114;DHT22;14648;49.730;8.614;2023-04-15T08:28:45;13.50;52.00
27114;DHT22;14648;49.730;8.614;2023-04-15T08:31:15;13.50;51.70
27114;DHT22;14648;49.730;8.614;2023-04-15T08:33:42;13.50;51.50
27114;DHT22;14648;49.730;8.614;2023-04-15T08:36:07;13.60;51.40
27114;DHT22;14648;49.730;8.614;2023-04-15T08:38:34;13.70;51.40
27114;DHT22;14648;49.730;8.614;2023-04-15T08:41:05;13.90;51.00
27114;DHT22;14648;49.730;8.614;2023-04-15T08:43:34;14.20;50.90
27114;DHT22;14648;49.730;8.614;2023-04-15T08:46:04;14.50;50.80
27114;DHT22;14648;49.730;8.614;2023-04-15T08:48:35;14.70;50.40
27114;DHT22;14648;49.730;8.614;2023-04-15T08:51:03;14.90;49.70
27114;DHT22;14648;49.730;8.614;2023-04-15T08:53:29;15.20;49.40
27114;DHT22;14648;49.730;8.614;2023-04-15T08:55:56;15.30;48.20
27114;DHT22;14648;49.730;8.614;2023-04-15T08:58:23;15.30;48.40
27114;DHT22;14648;49.730;8.614;2023-04-15T09:00:49;15.40;47.40
27114;DHT22;14648;49.730;8.614;2023-04-15T09:03:15;15.50;47.00
27114;DHT22;14648;49.730;8.614;2023-04-15T09:05:42;15.50;46.60
27114;DHT22;14648;49.730;8.614;2023-04-15T09:08:07;15.50;46.60
27114;DHT22;14648;49.730;8.614;2023-04-15T09:10:33;15.50;46.60
27114;DHT22;14648;49.730;8.614;2023-04-15T09:13:00;15.50;46.80
27114;DHT22;14648;49.730;8.614;2023-04-15T09:15:26;15.60;45.70
27114;DHT22;14648;49.730;8.614;2023-04-15T09:17:54;15.60;45.20
27114;DHT22;14648;49.730;8.614;2023-04-15T09:20:21;15.50;44.80
27114;DHT22;14648;49.730;8.614;2023-04-15T09:22:48;15.40;44.40
27114;DHT22;14648;49.730;8.614;2023-04-15T09:27:50;15.40;44.40
27114;DHT22;14648;49.730;8.614;2023-04-15T09:30:29;15.30;43.80
27114;DHT22;14648;49.730;8.614;2023-04-15T09:32:57;15.30;43.80
27114;DHT22;14648;49.730;8.614;2023-04-15T09:35:25;15.30;43.60
27114;DHT22;14648;49.730;8.614;2023-04-15T09:37:53;15.30;43.40
27114;DHT22;14648;49.730;8.614;2023-04-15T09:40:40;15.30;43.00
27114;DHT22;14648;49.730;8.614;2023-04-15T09:43:08;15.30;42.70
27114;DHT22;14648;49.730;8.614;2023-04-15T09:45:37;15.40;42.90
27114;DHT22;14648;49.730;8.614;2023-04-15T09:48:21;15.40;42.70
27114;DHT22;14648;49.730;8.614;2023-04-15T09:50:50;15.50;42.10
27114;DHT22;14648;49.730;8.614;2023-04-15T09:53:22;15.50;42.30
27114;DHT22;14648;49.730;8.614;2023-04-15T09:55:54;15.50;41.80
27114;DHT22;14648;49.730;8.614;2023-04-15T09:58:22;15.50;41.40
27114;DHT22;14648;49.730;8.614;2023-04-15T10:00:50;15.50;40.80
27114;DHT22;14648;49.730;8.614;2023-04-15T10:03:40;15.40;40.60
27114;DHT22;14648;49.730;8.614;2023-04-15T10:06:07;15.40;40.80
27114;DHT22;14648;49.730;8.614;2023-04-15T10:08:36;15.40;40.70
27114;DHT22;14648;49.730;8.614;2023-04-15T10:11:03;15.40;40.20
27114;DHT22;14648;49.730;8.614;2023-04-15T10:13:30;15.40;40.00
27114;DHT22;14648;49.730;8.614;2023-04-15T10:16:08;15.40;39.60
27114;DHT22;14648;49.730;8.614;2023-04-15T10:18:39;15.30;39.30
27114;DHT22;14648;49.730;8.614;2023-04-15T10:21:08;15.30;39.50
27114;DHT22;14648;49.730;8.614;2023-04-15T10:23:34;15.40;39.60
27114;DHT22;14648;49.730;8.614;2023-04-15T10:26:00;15.40;39.60
27114;DHT22;14648;49.730;8.614;2023-04-15T10:28:27;15.40;39.70
27114;DHT22;14648;49.730;8.614;2023-04-15T10:30:53;15.50;39.70
27114;DHT22;14648;49.730;8.614;2023-04-15T10:33:21;15.60;39.60
27114;DHT22;14648;49.730;8.614;2023-04-15T10:35:48;15.60;39.40
27114;DHT22;14648;49.730;8.614;2023-04-15T10:38:39;15.60;38.90
27114;DHT22;14648;49.730;8.614;2023-04-15T10:43:38;15.50;38.30
27114;DHT22;14648;49.730;8.614;2023-04-15T10:46:05;15.40;38.40
27114;DHT22;14648;49.730;8.614;2023-04-15T10:48:32;15.30;38.20
27114;DHT22;14648;49.730;8.614;2023-04-15T10:51:00;15.30;38.20
27114;DHT22;14648;49.730;8.614;2023-04-15T10:53:29;15.20;38.00
27114;DHT22;14648;49.730;8.614;2023-04-15T10:55:56;15.20;38.00
27114;DHT22;14648;49.730;8.614;2023-04-15T10:58:24;15.20;38.20
27114;DHT22;14648;49.730;8.614;2023-04-15T11:00:52;15.20;38.30
27114;DHT22;14648;49.730;8.614;2023-04-15T11:03:39;15.20;38.50
27114;DHT22;14648;49.730;8.614;2023-04-15T11:06:07;15.30;38.50
27114;DHT22;14648;49.730;8.614;2023-04-15T11:08:56;15.30;38.70
27114;DHT22;14648;49.730;8.614;2023-04-15T11:14:33;15.20;38.60
27114;DHT22;14648;49.730;8.614;2023-04-15T11:17:00;15.20;38.80
27114;DHT22;14648;49.730;8.614;2023-04-15T11:19:26;15.20;39.60
27114;DHT22;14648;49.730;8.614;2023-04-15T11:22:09;15.30;39.10
27114;DHT22;14648;49.730;8.614;2023-04-15T11:24:35;15.40;39.20
27114;DHT22;14648;49.730;8.614;2023-04-15T11:27:01;15.50;39.20
27114;DHT22;14648;49.730;8.614;2023-04-15T11:29:33;15.60;39.90
27114;DHT22;14648;49.730;8.614;2023-04-15T11:32:08;15.60;39.30
27114;DHT22;14648;49.730;8.614;2023-04-15T11:34:34;15.70;39.90
27114;DHT22;14648;49.730;8.614;2023-04-15T11:37:04;15.80;39.50
27114;DHT22;14648;49.730;8.614;2023-04-15T11:39:31;15.90;39.20
27114;DHT22;14648;49.730;8.614;2023-04-15T11:41:57;16.00;39.00
27114;DHT22;14648;49.730;8.614;2023-04-15T11:44:22;16.10;39.20
27114;DHT22;14648;49.730;8.614;2023-04-15T11:46:48;16.20;39.00
27114;DHT22;14648;49.730;8.614;2023-04-15T11:49:29;16.40;38.80
27114;DHT22;14648;49.730;8.614;2023-04-15T11:51:55;16.80;38.50
27114;DHT22;14648;49.730;8.614;2023-04-15T11:54:21;17.00;38.20
27114;DHT22;14648;49.730;8.614;2023-04-15T11:56:50;17.10;37.80
27114;DHT22;14648;49.730;8.614;2023-04-15T11:59:17;17.10;37.30
27114;DHT22;14648;49.730;8.614;2023-04-15T12:01:43;17.10;37.30
27114;DHT22;14648;49.730;8.614;2023-04-15T12:04:15;17.10;37.10
27114;DHT22;14648;49.730;8.614;2023-04-15T12:06:43;17.00;36.20
27114;DHT22;14648;49.730;8.614;2023-04-15T12:09:11;17.00;36.60
27114;DHT22;14648;49.730;8.614;2023-04-15T12:11:49;17.00;36.80
27114;DHT22;14648;49.730;8.614;2023-04-15T12:14:30;17.00;37.50
27114;DHT22;14648;49.730;8.614;2023-04-15T12:17:02;17.10;37.20
27114;DHT22;14648;49.730;8.614;2023-04-15T12:19:34;17.10;37.40
27114;DHT22;14648;49.730;8.614;2023-04-15T12:22:14;17.10;37.10
27114;DHT22;14648;49.730;8.614;2023-04-15T12:24:41;17.10;36.70
27114;DHT22;14648;49.730;8.614;2023-04-15T12:27:12;17.00;36.70
27114;DHT22;14648;49.730;8.614;2023-04-15T12:29:41;16.90;36.50
27114;DHT22;14648;49.730;8.614;2023-04-15T12:32:09;16.90;36.50
27114;DHT22;14648;49.730;8.614;2023-04-15T12:34:49;16.80;36.40
27114;DHT22;14648;49.730;8.614;2023-04-15T12:37:16;16.70;36.30
27114;DHT22;14648;49.730;8.614;2023-04-15T12:39:43;16.70;36.40
27114;DHT22;14648;49.730;8.614;2023-04-15T12:42:11;16.50;36.50
27114;DHT22;14648;49.730;8.614;2023-04-15T12:44:38;16.40;36.50
27114;DHT22;14648;49.730;8.614;2023-04-15T12:47:04;16.30;36.40
27114;DHT22;14648;49.730;8.614;2023-04-15T12:49:30;16.20;36.30
27114;DHT22;14648;49.730;8.614;2023-04-15T12:51:58;16.10;36.50
27114;DHT22;14648;49.730;8.614;2023-04-15T12:54:25;16.00;36.40
27114;DHT22;14648;49.730;8.614;2023-04-15T12:56:52;15.80;36.30
27114;DHT22;14648;49.730;8.614;2023-04-15T12:59:19;15.70;36.40
27114;DHT22;14648;49.730;8.614;2023-04-15T13:01:45;15.60;36.50
27114;DHT22;14648;49.730;8.614;2023-04-15T13:04:12;15.40;36.40
27114;DHT22;14648;49.730;8.614;2023-04-15T13:06:38;15.30;36.70
27114;DHT22;14648;49.730;8.614;2023-04-15T13:09:04;15.20;36.80
27114;DHT22;14648;49.730;8.614;2023-04-15T13:11:31;15.30;37.20
27114;DHT22;14648;49.730;8.614;2023-04-15T13:14:01;15.20;37.20
27114;DHT22;14648;49.730;8.614;2023-04-15T13:16:29;15.20;37.40
27114;DHT22;14648;49.730;8.614;2023-04-15T13:18:56;15.10;37.70
27114;DHT22;14648;49.730;8.614;2023-04-15T13:21:23;15.00;38.30
27114;DHT22;14648;49.730;8.614;2023-04-15T13:23:49;14.80;38.90
27114;DHT22;14648;49.730;8.614;2023-04-15T13:26:17;14.70;39.80
27114;DHT22;14648;49.730;8.614;2023-04-15T13:28:44;14.60;40.90
27114;DHT22;14648;49.730;8.614;2023-04-15T13:31:10;14.50;41.40
27114;DHT22;14648;49.730;8.614;2023-04-15T13:33:35;14.60;42.30
27114;DHT22;14648;49.730;8.614;2023-04-15T13:36:01;14.70;42.90
27114;DHT22;14648;49.730;8.614;2023-04-15T13:38:27;14.70;44.00
27114;DHT22;14648;49.730;8.614;2023-04-15T13:40:52;14.80;43.80
27114;DHT22;14648;49.730;8.614;2023-04-15T13:43:18;14.70;44.10
27114;DHT22;14648;49.730;8.614;2023-04-15T13:45:46;14.60;44.60
27114;DHT22;14648;49.730;8.614;2023-04-15T13:48:12;14.50;45.20
27114;DHT22;14648;49.730;8.614;2023-04-15T13:50:38;14.50;46.60
27114;DHT22;14648;49.730;8.614;2023-04-15T13:53:04;14.50;46.40
27114;DHT22;14648;49.730;8.614;2023-04-15T13:55:29;14.40;46.90
27114;DHT22;14648;49.730;8.614;2023-04-15T13:57:55;14.30;47.20
27114;DHT22;14648;49.730;8.614;2023-04-15T14:00:21;14.20;47.90
27114;DHT22;14648;49.730;8.614;2023-04-15T14:02:47;14.10;48.10
27114;DHT22;14648;49.730;8.614;2023-04-15T14:05:12;14.00;48.50
27114;DHT22;14648;49.730;8.614;2023-04-15T14:07:38;13.90;48.80
27114;DHT22;14648;49.730;8.614;2023-04-15T14:10:05;13.80;49.20
27114;DHT22;14648;49.730;8.614;2023-04-15T14:12:32;13.70;49.50
27114;DHT22;14648;49.730;8.614;2023-04-15T14:14:57;13.60;50.00
27114;DHT22;14648;49.730;8.614;2023-04-15T14:17:23;13.50;50.10
27114;DHT22;14648;49.730;8.614;2023-04-15T14:19:49;13.40;50.30
27114;DHT22;14648;49.730;8.614;2023-04-15T14:22:15;13.40;50.60
27114;DHT22;14648;49.730;8.614;2023-04-15T14:24:44;13.30;50.80
27114;DHT22;14648;49.730;8.614;2023-04-15T14:27:10;13.30;51.10
27114;DHT22;14648;49.730;8.614;2023-04-15T14:29:36;13.20;51.20
27114;DHT22;14648;49.730;8.614;2023-04-15T14:32:02;13.20;51.40
27114;DHT22;14648;49.730;8.614;2023-04-15T14:34:28;13.20;51.60
27114;DHT22;14648;49.730;8.614;2023-04-15T14:36:55;13.20;51.80
27114;DHT22;14648;49.730;8.614;2023-04-15T14:39:21;13.10;51.70
27114;DHT22;14648;49.730;8.614;2023-04-15T14:41:46;13.00;51.80
27114;DHT22;14648;49.730;8.614;2023-04-15T14:44:12;13.00;51.80
27114;DHT22;14648;49.730;8.614;2023-04-15T14:46:38;13.00;52.10
27114;DHT22;14648;49.730;8.614;2023-04-15T14:49:05;12.90;52.20
27114;DHT22;14648;49.730;8.614;2023-04-15T14:51:32;12.90;52.20
27114;DHT22;14648;49.730;8.614;2023-04-15T14:53:59;12.90;52.30
27114;DHT22;14648;49.730;8.614;2023-04-15T14:56:25;12.80;52.30
27114;DHT22;14648;49.730;8.614;2023-04-15T14:58:51;12.80;52.30
27114;DHT22;14648;49.730;8.614;2023-04-15T15:01:19;12.70;52.50
27114;DHT22;14648;49.730;8.614;2023-04-15T15:03:45;12.70;52.70
27114;DHT22;14648;49.730;8.614;2023-04-15T15:06:11;12.60;52.80
27114;DHT22;14648;49.730;8.614;2023-04-15T15:08:37;12.50;53.00
27114;DHT22;14648;49.730;8.614;2023-04-15T15:11:03;12.50;53.30
27114;DHT22;14648;49.730;8.614;2023-04-15T15:13:29;12.40;53.30
27114;DHT22;14648;49.730;8.614;2023-04-15T15:15:56;12.40;53.60
27114;DHT22;14648;49.730;8.614;2023-04-15T15:18:22;12.40;53.90
27114;DHT22;14648;49.730;8.614;2023-04-15T15:20:49;12.40;54.10
27114;DHT22;14648;49.730;8.614;2023-04-15T15:23:15;12.30;54.20
27114;DHT22;14648;49.730;8.614;2023-04-15T15:25:41;12.30;54.30
27114;DHT22;14648;49.730;8.614;2023-04-15T15:28:07;12.30;54.50
27114;DHT22;14648;49.730;8.614;2023-04-15T15:30:33;12.30;54.80
27114;DHT22;14648;49.730;8.614;2023-04-15T15:33:02;12.20;54.80
27114;DHT22;14648;49.730;8.614;2023-04-15T15:35:27;12.10;54.80
27114;DHT22;14648;49.730;8.614;2023-04-15T15:37:53;12.10;54.90
27114;DHT22;14648;49.730;8.614;2023-04-15T15:40:19;12.00;54.90
27114;DHT22;14648;49.730;8.614;2023-04-15T15:42:45;11.90;55.10
27114;DHT22;14648;49.730;8.614;2023-04-15T15:45:14;11.80;55.30